Northway, AK

1:40 PM AKDT on August 20, 2014 (GMT -0800)
Northway | Change Station
CLOSE
Current Station
Airport
Location: Northway,
Elevation: 1722 ft
Nearby Weather Stations

Elev 1722 ft 62.96 °N, 141.93 °W | Updated 47 minutes ago

Mostly Cloudy
Mostly Cloudy
64 °F
Feels Like 64 °F
N
4
Wind Variable Wind from NW

Today
High -- | Low -- °F
--% Chance of Precip.
Yesterday
High -- | Low -- °F
Precip. -- in
5:41 AM 9:18 PM
Waning Crescent, 19% visible
Pressure 30.07 in
Visibility 10.0 miles
Clouds Scattered Clouds 3500 ft
Scattered Clouds 4600 ft
Mostly Cloudy 8000 ft
Dew Point 46 °F
Humidity 52%
Rainfall 0.00 in
Snow Depth Not available.
UV 3 out of 12
Pollen Not available.
Air Quality Not available.
Flu Activity Not available.
METAR PAOR 202053Z 32003KT 10SM SCT035 SCT046 BKN080 18/08 A3005 RMK AO2 SLP181 T01780078 58004

More Conditions Fewer Conditions

Pressure 30.07 in
Visibility 10.0 miles
Clouds Scattered Clouds 3500 ft
Scattered Clouds 4600 ft
Mostly Cloudy 8000 ft
Dew Point 46 °F
Humidity 52%
Rainfall 0.00 in
Snow Depth Not available.
UV 3 out of 12
Pollen Not available.
Air Quality Not available.
Flu Activity Not available.
METAR PAOR 202053Z 32003KT 10SM SCT035 SCT046 BKN080 18/08 A3005 RMK AO2 SLP181 T01780078 58004

More Conditions Fewer Conditions

10-Day Weather Forecast

Almanac

Astronomy

Aug. 20, 2014 Rise Set
Actual Time 5:41 AM AKDT 9:18 PM AKDT
Civil Twilight 4:44 AM AKDT 10:14 PM AKDT
Nautical Twilight 3:15 AM AKDT 11:41 PM AKDT
Astronomical Twilight Sun does not rise Sun does not rise
Moon 12:48 AM AKDT 6:47 PM AKDT
Length of Visible Light 17h 30m
Length of Day
15h 37m
Tomorrow will be 6m 9s shorter.
Waning Crescent, 19% of the Moon is Illuminated
Today
Waning Crescent
Aug 25
New
Sep 2
First Quarter
Sep 8
Full
Sep 15
Last Quarter

Today's Extremes

State Highs State Lows

Community

WunderPhotos

Upload Photos

1,745,768 photos uploaded!

WunderBlogs® & News

Nearby

Snow Depth

Station Depth Elevation
Granite Creek 0 in 1240 ft
Upper Tsaina River 0 in 1750 ft
Upper Chena 1 in 2850 ft
Teuchet Creek 0 in 1640 ft
Munson Ridge 1 in 3100 ft

Earthquake Activity

City Distance Mag. Time & Date
No recent earthquake activity has been reported nearby.
Minimum magnitude displayed is 2.5.

Coastal Water Temperatures

Place Temperature
No Stations Reporting

Nearby Weather Stations